createdAt,value
2019-05-15T00:00:38.630Z,1.50
2019-05-15T00:05:43.173Z,1.57
2019-05-15T00:10:48.399Z,1.50
2019-05-15T00:15:53.019Z,1.63
2019-05-15T00:20:59.509Z,1.67
2019-05-15T00:26:03.468Z,1.60
2019-05-15T00:31:09.064Z,1.40
2019-05-15T00:36:13.676Z,1.43
2019-05-15T00:41:18.507Z,1.40
2019-05-15T00:46:22.977Z,1.53
2019-05-15T00:51:28.473Z,1.70
2019-05-15T00:56:33.068Z,1.50
2019-05-15T01:01:38.234Z,1.80
2019-05-15T01:06:42.666Z,1.40
2019-05-15T01:11:48.767Z,1.60
2019-05-15T01:16:53.324Z,1.73
2019-05-15T01:21:58.722Z,2.00
2019-05-15T01:27:04.212Z,1.50
2019-05-15T01:32:08.587Z,1.40
2019-05-15T01:37:12.903Z,1.67
2019-05-15T01:42:18.607Z,1.60
2019-05-15T01:47:23.129Z,1.30
2019-05-15T01:52:27.966Z,1.60
2019-05-15T01:57:32.400Z,1.50
2019-05-15T02:02:39.139Z,1.77
2019-05-15T02:07:43.154Z,1.57
2019-05-15T02:12:48.098Z,1.60
2019-05-15T02:17:52.600Z,1.50
2019-05-15T02:22:59.106Z,1.50
2019-05-15T02:28:04.124Z,1.90
2019-05-15T02:33:10.695Z,1.53
2019-05-15T02:38:15.550Z,1.37
2019-05-15T02:43:20.202Z,1.50
2019-05-15T02:48:24.573Z,1.60
2019-05-15T02:53:30.211Z,1.67
2019-05-15T02:58:35.682Z,1.60
2019-05-15T03:03:40.171Z,1.50
2019-05-15T03:08:44.503Z,2.37
2019-05-15T03:13:50.418Z,1.63
2019-05-15T03:18:56.655Z,1.67
2019-05-15T03:24:01.612Z,2.00
2019-05-15T03:29:05.947Z,1.90
2019-05-15T03:34:20.572Z,1.90
2019-05-15T03:39:18.962Z,1.80
2019-05-15T03:44:22.505Z,2.13
2019-05-15T03:49:29.460Z,2.50
2019-05-15T03:54:33.059Z,2.10
2019-05-15T03:59:39.955Z,2.50
2019-05-15T04:04:43.469Z,2.10
2019-05-15T04:09:49.346Z,2.00
2019-05-15T04:14:53.977Z,2.00
2019-05-15T04:19:58.990Z,1.97
2019-05-15T04:25:05.536Z,1.77
2019-05-15T04:30:10.934Z,1.80
2019-05-15T04:35:15.465Z,1.83
2019-05-15T04:40:19.961Z,2.00
2019-05-15T04:45:24.327Z,2.33
2019-05-15T04:50:29.030Z,2.20
2019-05-15T04:55:33.482Z,1.90
2019-05-15T05:00:52.111Z,2.00
2019-05-15T05:05:59.090Z,2.50
2019-05-15T05:11:02.512Z,1.95
2019-05-15T05:16:09.635Z,2.50
2019-05-15T05:21:13.270Z,2.23
2019-05-15T05:26:18.512Z,2.43
2019-05-15T05:31:23.253Z,2.70
2019-05-15T05:36:28.034Z,2.23
2019-05-15T05:41:33.128Z,2.20
2019-05-15T05:46:39.631Z,2.00
2019-05-15T05:51:43.531Z,2.10
2019-05-15T05:56:48.422Z,2.33
2019-05-15T06:01:53.088Z,2.20
2019-05-15T06:07:07.201Z,2.60
2019-05-15T06:12:03.435Z,1.87
2019-05-15T06:17:08.342Z,2.00
2019-05-15T06:22:12.842Z,2.00
2019-05-15T06:27:17.169Z,2.20
2019-05-15T06:32:21.528Z,1.90
2019-05-15T06:37:28.514Z,2.37
2019-05-15T06:42:32.102Z,1.87
2019-05-15T06:47:36.495Z,2.00
2019-05-15T06:52:40.887Z,2.23
2019-05-15T06:57:45.265Z,1.97
2019-05-15T07:02:49.631Z,2.20
2019-05-15T07:07:54.021Z,2.00
2019-05-15T07:12:58.642Z,2.43
2019-05-15T07:18:03.014Z,2.27
2019-05-15T07:23:08.868Z,2.20
2019-05-15T07:28:13.495Z,2.17
2019-05-15T07:33:28.073Z,2.03
2019-05-15T07:38:24.035Z,2.17
2019-05-15T07:43:28.424Z,2.27
2019-05-15T07:48:32.856Z,1.73
2019-05-15T07:53:38.421Z,2.00
2019-05-15T07:58:43.088Z,2.20
2019-05-15T08:03:59.085Z,2.00
2019-05-15T08:08:53.525Z,1.77
2019-05-15T08:13:58.295Z,2.27
2019-05-15T08:19:02.761Z,2.03
2019-05-15T08:24:08.470Z,2.47
2019-05-15T08:29:13.160Z,2.00
2019-05-15T08:34:19.602Z,2.10
2019-05-15T08:39:23.615Z,2.50
2019-05-15T08:44:29.315Z,2.17
2019-05-15T08:49:33.880Z,2.80
2019-05-15T08:54:38.433Z,2.60
2019-05-15T08:59:42.787Z,3.00
2019-05-15T09:04:48.655Z,2.70
2019-05-15T09:09:53.197Z,2.60
2019-05-15T09:14:58.195Z,2.63
2019-05-15T09:20:02.813Z,2.60
2019-05-15T09:25:09.046Z,2.77
2019-05-15T09:30:13.955Z,2.90
2019-05-15T09:35:20.260Z,2.70
2019-05-15T09:40:41.779Z,3.33
2019-05-15T09:45:31.372Z,3.20
2019-05-15T09:50:35.747Z,2.57
2019-05-15T09:55:40.106Z,3.37
2019-05-15T10:00:44.565Z,3.00
2019-05-15T10:05:48.966Z,3.13
2019-05-15T10:10:53.305Z,3.20
2019-05-15T10:15:58.587Z,3.23
2019-05-15T10:21:03.165Z,3.55
2019-05-15T10:26:14.021Z,3.33
2019-05-15T10:31:15.436Z,2.80
2019-05-15T10:36:19.816Z,2.93
2019-05-15T10:41:24.183Z,2.90
2019-05-15T10:46:28.682Z,3.40
2019-05-15T10:51:33.065Z,2.97
2019-05-15T10:56:38.576Z,3.00
2019-05-15T11:01:43.940Z,3.00
2019-05-15T11:06:49.052Z,3.40
2019-05-15T11:11:54.154Z,3.20
2019-05-15T11:16:59.042Z,3.60
2019-05-15T11:22:03.517Z,3.10
2019-05-15T11:27:10.062Z,3.13
2019-05-15T11:32:14.119Z,3.13
2019-05-15T11:37:19.021Z,3.30
2019-05-15T11:42:23.498Z,3.30
2019-05-15T11:47:28.009Z,3.20
2019-05-15T11:52:32.391Z,3.50
2019-05-15T11:57:43.587Z,3.70
2019-05-15T12:02:42.961Z,3.63
2019-05-15T12:07:47.835Z,3.63
2019-05-15T12:12:52.541Z,3.10
2019-05-15T12:17:59.021Z,3.62
2019-05-15T12:23:03.080Z,3.67
2019-05-15T12:28:09.499Z,3.60
2019-05-15T12:33:13.489Z,3.03
2019-05-15T12:38:18.681Z,3.60
2019-05-15T13:03:48.654Z,3.40
2019-05-15T13:08:53.175Z,3.70
2019-05-15T13:13:59.110Z,3.63
2019-05-15T13:19:03.668Z,3.57
2019-05-15T13:24:08.193Z,3.43
2019-05-15T13:29:12.544Z,3.60
2019-05-15T13:34:19.751Z,3.73
2019-05-15T13:39:22.954Z,3.50
2019-05-15T13:44:29.352Z,3.70
2019-05-15T13:49:33.389Z,3.57
2019-05-15T13:54:38.024Z,4.27
2019-05-15T13:59:42.424Z,4.47
2019-05-15T14:04:49.097Z,4.00
2019-05-15T14:09:52.835Z,3.73
2019-05-15T14:14:58.123Z,3.60
2019-05-15T14:20:02.551Z,4.30
2019-05-15T14:25:08.844Z,4.23
2019-05-15T14:30:14.133Z,4.57
2019-05-15T14:35:18.747Z,4.43
2019-05-15T14:40:23.178Z,4.33
2019-05-15T14:45:28.017Z,4.37
2019-05-15T14:50:32.531Z,4.07
2019-05-15T14:55:43.287Z,4.40
2019-05-15T15:00:43.147Z,4.27
2019-05-15T15:05:49.248Z,4.20
2019-05-15T15:10:54.797Z,4.43
2019-05-15T15:15:59.264Z,4.57
2019-05-15T15:21:05.479Z,4.40
2019-05-15T15:26:09.811Z,4.47
2019-05-15T15:31:14.214Z,4.67
2019-05-15T15:36:18.631Z,4.40
2019-05-15T15:41:23.346Z,4.50
2019-05-15T15:46:28.733Z,4.30
2019-05-15T15:51:34.148Z,4.67
2019-05-15T15:56:39.233Z,4.30
2019-05-15T16:01:43.961Z,3.93
2019-05-15T16:06:48.529Z,4.43
2019-05-15T16:11:53.013Z,3.90
2019-05-15T16:16:58.214Z,4.40
2019-05-15T16:22:02.765Z,3.80
2019-05-15T16:27:09.650Z,3.97
2019-05-15T16:32:19.188Z,4.30
2019-05-15T16:37:21.418Z,4.20
2019-05-15T16:42:25.867Z,4.00
2019-05-15T16:47:30.886Z,4.23
2019-05-15T16:52:38.469Z,4.53
2019-05-15T16:57:42.403Z,4.07
2019-05-15T17:02:48.266Z,4.00
2019-05-15T17:07:52.747Z,3.57
2019-05-15T17:12:58.360Z,4.13
2019-05-15T17:18:02.917Z,3.70
2019-05-15T17:23:08.625Z,3.93
2019-05-15T17:28:14.162Z,4.00
2019-05-15T17:33:18.616Z,3.93
2019-05-15T17:38:22.967Z,4.50
2019-05-15T17:43:28.707Z,4.23
2019-05-15T17:48:33.290Z,3.97
2019-05-15T17:53:38.277Z,4.40
2019-05-15T17:58:42.824Z,4.23
2019-05-15T18:03:48.583Z,3.80
2019-05-15T18:08:53.267Z,4.40
2019-05-15T18:13:58.202Z,3.53
2019-05-15T18:19:03.655Z,4.43
2019-05-15T18:24:09.309Z,4.40
2019-05-15T18:29:14.018Z,4.17
2019-05-15T18:34:18.982Z,4.60
2019-05-15T18:39:23.396Z,4.30
2019-05-15T18:44:28.353Z,4.60
2019-05-15T18:49:32.964Z,4.40
2019-05-15T18:54:38.722Z,4.60
2019-05-15T18:59:43.535Z,4.80
2019-05-15T19:04:49.150Z,4.20
2019-05-15T19:09:53.725Z,4.53
2019-05-15T19:14:58.777Z,4.47
2019-05-15T19:20:03.959Z,4.20
2019-05-15T19:25:09.212Z,3.87
2019-05-15T19:30:15.256Z,3.93
2019-05-15T19:35:19.682Z,3.63
2019-05-15T19:40:24.148Z,4.30
2019-05-15T19:45:28.759Z,4.10
2019-05-15T19:50:33.133Z,4.87
2019-05-15T19:55:38.586Z,4.63
2019-05-15T20:00:43.382Z,4.90
2019-05-15T20:05:48.620Z,4.77
2019-05-15T20:10:53.225Z,5.33
2019-05-15T20:15:58.126Z,5.33
2019-05-15T20:21:02.696Z,5.03
2019-05-15T20:26:08.386Z,5.53
2019-05-15T20:31:13.476Z,4.97
2019-05-15T20:36:18.351Z,4.60
2019-05-15T20:41:24.143Z,4.87
2019-05-15T20:46:29.059Z,4.53
2019-05-15T20:51:35.773Z,4.60
2019-05-15T20:56:39.743Z,4.67
2019-05-15T21:01:44.205Z,4.43
2019-05-15T21:06:48.715Z,4.60
2019-05-15T21:11:53.060Z,4.47
2019-05-15T21:16:59.074Z,4.30
2019-05-15T21:22:03.544Z,3.90
2019-05-15T21:27:07.902Z,3.80
2019-05-15T21:32:12.278Z,3.70
2019-05-15T21:37:18.732Z,3.70
2019-05-15T21:42:23.157Z,3.80
2019-05-15T21:47:28.058Z,3.50
2019-05-15T21:52:32.562Z,3.87
2019-05-15T21:57:39.949Z,3.30
2019-05-15T22:02:43.204Z,3.87
2019-05-15T22:07:48.391Z,3.20
2019-05-15T22:12:53.912Z,3.60
2019-05-15T22:17:58.431Z,3.43
2019-05-15T22:23:02.977Z,3.43
2019-05-15T22:28:07.350Z,3.40
2019-05-15T22:33:11.674Z,3.10
2019-05-15T22:38:18.026Z,3.90
2019-05-15T22:43:22.096Z,3.50
2019-05-15T22:48:28.580Z,3.30
2019-05-15T22:53:32.532Z,3.90
2019-05-15T22:58:38.671Z,3.87
2019-05-15T23:03:42.938Z,3.67
2019-05-15T23:08:48.946Z,3.93
2019-05-15T23:13:53.548Z,3.97
2019-05-15T23:18:58.840Z,3.50
2019-05-15T23:24:03.266Z,3.50
2019-05-15T23:29:08.014Z,3.53
2019-05-15T23:34:13.449Z,3.30
2019-05-15T23:39:18.264Z,3.67
2019-05-15T23:44:22.773Z,3.70
2019-05-15T23:49:27.858Z,3.63
2019-05-15T23:54:32.417Z,4.13
2019-05-15T23:59:38.403Z,3.60
